sensor_id;sensor_type;location;lat;lon;timestamp;P1;durP1;ratioP1;P2;durP2;ratioP2
35074;SDS011;21260;34.984;32.490;2023-01-29T00:00:07;8.30;;;1.93;;
35074;SDS011;21260;34.984;32.490;2023-01-29T00:02:36;4.70;;;1.50;;
35074;SDS011;21260;34.984;32.490;2023-01-29T00:05:08;11.73;;;1.80;;
35074;SDS011;21260;34.984;32.490;2023-01-29T00:07:34;8.67;;;2.07;;
35074;SDS011;21260;34.984;32.490;2023-01-29T00:10:06;14.87;;;2.27;;
35074;SDS011;21260;34.984;32.490;2023-01-29T00:12:33;17.07;;;2.33;;
35074;SDS011;21260;34.984;32.490;2023-01-29T00:15:00;10.50;;;1.60;;
35074;SDS011;21260;34.984;32.490;2023-01-29T00:17:27;7.63;;;1.57;;
35074;SDS011;21260;34.984;32.490;2023-01-29T00:19:54;12.10;;;2.13;;
35074;SDS011;21260;34.984;32.490;2023-01-29T00:22:21;11.07;;;2.27;;
35074;SDS011;21260;34.984;32.490;2023-01-29T00:24:48;7.43;;;1.83;;
35074;SDS011;21260;34.984;32.490;2023-01-29T00:27:15;13.17;;;2.10;;
35074;SDS011;21260;34.984;32.490;2023-01-29T00:29:42;12.77;;;2.13;;
35074;SDS011;21260;34.984;32.490;2023-01-29T00:32:27;12.30;;;1.93;;
35074;SDS011;21260;34.984;32.490;2023-01-29T00:35:02;6.63;;;1.77;;
35074;SDS011;21260;34.984;32.490;2023-01-29T00:37:35;5.93;;;1.87;;
35074;SDS011;21260;34.984;32.490;2023-01-29T00:40:03;9.83;;;2.10;;
35074;SDS011;21260;34.984;32.490;2023-01-29T00:42:39;5.77;;;1.40;;
35074;SDS011;21260;34.984;32.490;2023-01-29T00:45:34;8.07;;;1.60;;
35074;SDS011;21260;34.984;32.490;2023-01-29T00:48:06;6.33;;;1.90;;
35074;SDS011;21260;34.984;32.490;2023-01-29T00:50:32;11.30;;;1.70;;
35074;SDS011;21260;34.984;32.490;2023-01-29T00:52:59;5.07;;;1.50;;
35074;SDS011;21260;34.984;32.490;2023-01-29T00:55:28;11.60;;;1.83;;
35074;SDS011;21260;34.984;32.490;2023-01-29T00:58:01;11.47;;;1.90;;
35074;SDS011;21260;34.984;32.490;2023-01-29T01:00:36;10.33;;;2.13;;
35074;SDS011;21260;34.984;32.490;2023-01-29T01:03:14;6.13;;;1.70;;
35074;SDS011;21260;34.984;32.490;2023-01-29T01:05:43;7.70;;;1.80;;
35074;SDS011;21260;34.984;32.490;2023-01-29T01:08:13;7.97;;;1.93;;
35074;SDS011;21260;34.984;32.490;2023-01-29T01:11:08;6.47;;;1.90;;
35074;SDS011;21260;34.984;32.490;2023-01-29T01:13:35;9.57;;;2.00;;
35074;SDS011;21260;34.984;32.490;2023-01-29T01:16:11;7.90;;;1.70;;
35074;SDS011;21260;34.984;32.490;2023-01-29T01:18:49;7.93;;;1.77;;
35074;SDS011;21260;34.984;32.490;2023-01-29T01:21:16;9.93;;;1.93;;
35074;SDS011;21260;34.984;32.490;2023-01-29T01:23:57;11.27;;;2.13;;
35074;SDS011;21260;34.984;32.490;2023-01-29T01:26:31;6.93;;;1.53;;
35074;SDS011;21260;34.984;32.490;2023-01-29T01:29:00;10.00;;;2.00;;
35074;SDS011;21260;34.984;32.490;2023-01-29T01:31:37;8.87;;;1.87;;
35074;SDS011;21260;34.984;32.490;2023-01-29T01:34:05;13.03;;;2.57;;
35074;SDS011;21260;34.984;32.490;2023-01-29T01:36:35;7.67;;;1.90;;
35074;SDS011;21260;34.984;32.490;2023-01-29T01:39:04;7.80;;;1.73;;
35074;SDS011;21260;34.984;32.490;2023-01-29T01:41:33;9.53;;;2.00;;
35074;SDS011;21260;34.984;32.490;2023-01-29T01:44:03;6.87;;;1.50;;
35074;SDS011;21260;34.984;32.490;2023-01-29T01:46:52;8.77;;;1.97;;
35074;SDS011;21260;34.984;32.490;2023-01-29T01:49:26;6.27;;;1.67;;
35074;SDS011;21260;34.984;32.490;2023-01-29T01:51:56;8.50;;;1.50;;
35074;SDS011;21260;34.984;32.490;2023-01-29T01:54:32;9.50;;;1.87;;
35074;SDS011;21260;34.984;32.490;2023-01-29T01:57:05;7.73;;;2.20;;
35074;SDS011;21260;34.984;32.490;2023-01-29T01:59:49;10.63;;;1.90;;
35074;SDS011;21260;34.984;32.490;2023-01-29T02:02:38;6.47;;;1.90;;
35074;SDS011;21260;34.984;32.490;2023-01-29T02:05:29;6.47;;;1.60;;
35074;SDS011;21260;34.984;32.490;2023-01-29T02:08:27;7.63;;;1.60;;
35074;SDS011;21260;34.984;32.490;2023-01-29T02:11:52;9.53;;;1.80;;
35074;SDS011;21260;34.984;32.490;2023-01-29T02:14:24;11.13;;;2.03;;
35074;SDS011;21260;34.984;32.490;2023-01-29T02:16:52;9.80;;;2.07;;
35074;SDS011;21260;34.984;32.490;2023-01-29T02:19:26;9.33;;;1.80;;
35074;SDS011;21260;34.984;32.490;2023-01-29T02:31:49;6.57;;;1.70;;
35074;SDS011;21260;34.984;32.490;2023-01-29T02:38:20;4.77;;;1.50;;
35074;SDS011;21260;34.984;32.490;2023-01-29T02:41:01;8.97;;;1.80;;
35074;SDS011;21260;34.984;32.490;2023-01-29T02:43:43;5.60;;;1.60;;
35074;SDS011;21260;34.984;32.490;2023-01-29T02:46:45;6.13;;;1.77;;
35074;SDS011;21260;34.984;32.490;2023-01-29T02:49:47;6.70;;;1.60;;
35074;SDS011;21260;34.984;32.490;2023-01-29T02:52:21;9.23;;;2.10;;
35074;SDS011;21260;34.984;32.490;2023-01-29T02:55:11;7.23;;;1.70;;
35074;SDS011;21260;34.984;32.490;2023-01-29T02:57:54;6.47;;;2.27;;
35074;SDS011;21260;34.984;32.490;2023-01-29T03:00:42;8.97;;;2.17;;
35074;SDS011;21260;34.984;32.490;2023-01-29T03:03:24;10.70;;;1.73;;
35074;SDS011;21260;34.984;32.490;2023-01-29T03:09:19;8.37;;;2.20;;
35074;SDS011;21260;34.984;32.490;2023-01-29T03:12:16;8.20;;;2.23;;
35074;SDS011;21260;34.984;32.490;2023-01-29T03:14:58;10.47;;;1.80;;
35074;SDS011;21260;34.984;32.490;2023-01-29T03:18:00;3.83;;;1.50;;
35074;SDS011;21260;34.984;32.490;2023-01-29T03:20:42;5.73;;;1.57;;
35074;SDS011;21260;34.984;32.490;2023-01-29T03:23:18;13.80;;;2.33;;
35074;SDS011;21260;34.984;32.490;2023-01-29T03:26:12;7.83;;;1.93;;
35074;SDS011;21260;34.984;32.490;2023-01-29T03:29:05;9.63;;;2.20;;
35074;SDS011;21260;34.984;32.490;2023-01-29T03:31:55;6.73;;;1.60;;
35074;SDS011;21260;34.984;32.490;2023-01-29T03:34:41;6.93;;;2.17;;
35074;SDS011;21260;34.984;32.490;2023-01-29T03:40:05;6.67;;;1.97;;
35074;SDS011;21260;34.984;32.490;2023-01-29T03:48:58;7.00;;;2.03;;
35074;SDS011;21260;34.984;32.490;2023-01-29T04:00:51;6.53;;;2.10;;
35074;SDS011;21260;34.984;32.490;2023-01-29T04:03:33;7.23;;;1.93;;
35074;SDS011;21260;34.984;32.490;2023-01-29T04:09:04;9.27;;;2.30;;
35074;SDS011;21260;34.984;32.490;2023-01-29T04:11:46;6.67;;;1.90;;
35074;SDS011;21260;34.984;32.490;2023-01-29T04:14:41;6.23;;;1.90;;
35074;SDS011;21260;34.984;32.490;2023-01-29T04:17:44;8.67;;;2.00;;
35074;SDS011;21260;34.984;32.490;2023-01-29T04:20:09;3.77;;;1.80;;
35074;SDS011;21260;34.984;32.490;2023-01-29T04:22:37;7.20;;;1.80;;
35074;SDS011;21260;34.984;32.490;2023-01-29T04:25:08;5.27;;;1.80;;
35074;SDS011;21260;34.984;32.490;2023-01-29T04:28:06;6.77;;;2.17;;
35074;SDS011;21260;34.984;32.490;2023-01-29T04:31:06;8.90;;;2.23;;
35074;SDS011;21260;34.984;32.490;2023-01-29T04:39:53;5.77;;;1.90;;
35074;SDS011;21260;34.984;32.490;2023-01-29T04:42:41;6.13;;;1.60;;
35074;SDS011;21260;34.984;32.490;2023-01-29T04:45:45;8.87;;;1.80;;
35074;SDS011;21260;34.984;32.490;2023-01-29T04:54:49;9.60;;;2.20;;
35074;SDS011;21260;34.984;32.490;2023-01-29T05:00:42;7.57;;;2.00;;
35074;SDS011;21260;34.984;32.490;2023-01-29T05:03:13;8.23;;;1.90;;
35074;SDS011;21260;34.984;32.490;2023-01-29T05:05:47;5.60;;;2.20;;
35074;SDS011;21260;34.984;32.490;2023-01-29T05:08:24;7.53;;;2.17;;
35074;SDS011;21260;34.984;32.490;2023-01-29T05:11:07;7.03;;;2.00;;
35074;SDS011;21260;34.984;32.490;2023-01-29T05:13:41;3.93;;;1.90;;
35074;SDS011;21260;34.984;32.490;2023-01-29T05:16:13;3.37;;;1.77;;
35074;SDS011;21260;34.984;32.490;2023-01-29T05:18:51;5.43;;;1.73;;
35074;SDS011;21260;34.984;32.490;2023-01-29T05:21:18;3.70;;;1.60;;
35074;SDS011;21260;34.984;32.490;2023-01-29T05:26:52;10.77;;;2.40;;
35074;SDS011;21260;34.984;32.490;2023-01-29T05:29:43;4.53;;;2.00;;
35074;SDS011;21260;34.984;32.490;2023-01-29T05:32:11;5.00;;;1.90;;
35074;SDS011;21260;34.984;32.490;2023-01-29T05:34:47;3.93;;;1.60;;
35074;SDS011;21260;34.984;32.490;2023-01-29T05:37:27;5.97;;;2.00;;
35074;SDS011;21260;34.984;32.490;2023-01-29T05:39:58;5.30;;;2.00;;
35074;SDS011;21260;34.984;32.490;2023-01-29T05:42:25;4.97;;;1.77;;
35074;SDS011;21260;34.984;32.490;2023-01-29T05:44:53;5.93;;;1.80;;
35074;SDS011;21260;34.984;32.490;2023-01-29T05:47:25;3.93;;;1.97;;
35074;SDS011;21260;34.984;32.490;2023-01-29T05:49:59;4.87;;;1.93;;
35074;SDS011;21260;34.984;32.490;2023-01-29T05:52:31;6.10;;;1.60;;
35074;SDS011;21260;34.984;32.490;2023-01-29T05:55:01;6.10;;;1.70;;
35074;SDS011;21260;34.984;32.490;2023-01-29T05:57:35;6.20;;;1.90;;
35074;SDS011;21260;34.984;32.490;2023-01-29T06:00:06;4.20;;;1.57;;
35074;SDS011;21260;34.984;32.490;2023-01-29T06:02:34;4.77;;;2.30;;
35074;SDS011;21260;34.984;32.490;2023-01-29T06:05:00;2.53;;;1.70;;
35074;SDS011;21260;34.984;32.490;2023-01-29T06:07:28;4.60;;;1.80;;
35074;SDS011;21260;34.984;32.490;2023-01-29T06:09:58;4.93;;;1.83;;
35074;SDS011;21260;34.984;32.490;2023-01-29T06:12:29;4.73;;;1.70;;
35074;SDS011;21260;34.984;32.490;2023-01-29T06:14:58;5.47;;;1.70;;
35074;SDS011;21260;34.984;32.490;2023-01-29T06:17:26;3.87;;;1.60;;
35074;SDS011;21260;34.984;32.490;2023-01-29T06:19:57;5.63;;;2.00;;
35074;SDS011;21260;34.984;32.490;2023-01-29T06:22:24;3.63;;;2.20;;
35074;SDS011;21260;34.984;32.490;2023-01-29T06:24:52;5.43;;;1.80;;
35074;SDS011;21260;34.984;32.490;2023-01-29T06:27:23;3.73;;;1.83;;
35074;SDS011;21260;34.984;32.490;2023-01-29T06:29:50;4.07;;;1.80;;
35074;SDS011;21260;34.984;32.490;2023-01-29T06:32:26;3.57;;;1.67;;
35074;SDS011;21260;34.984;32.490;2023-01-29T06:34:55;4.67;;;2.00;;
35074;SDS011;21260;34.984;32.490;2023-01-29T06:37:27;4.43;;;1.80;;
35074;SDS011;21260;34.984;32.490;2023-01-29T06:40:01;3.43;;;1.60;;
35074;SDS011;21260;34.984;32.490;2023-01-29T06:42:31;5.63;;;1.70;;
35074;SDS011;21260;34.984;32.490;2023-01-29T06:45:01;5.13;;;1.60;;
35074;SDS011;21260;34.984;32.490;2023-01-29T06:47:28;2.77;;;1.67;;
35074;SDS011;21260;34.984;32.490;2023-01-29T06:50:00;5.07;;;1.70;;
35074;SDS011;21260;34.984;32.490;2023-01-29T06:52:32;6.37;;;1.70;;
35074;SDS011;21260;34.984;32.490;2023-01-29T06:55:02;2.97;;;1.40;;
35074;SDS011;21260;34.984;32.490;2023-01-29T06:57:37;4.90;;;1.60;;
35074;SDS011;21260;34.984;32.490;2023-01-29T07:00:05;5.47;;;1.33;;
35074;SDS011;21260;34.984;32.490;2023-01-29T07:02:33;6.17;;;1.73;;
35074;SDS011;21260;34.984;32.490;2023-01-29T07:05:00;3.93;;;1.63;;
35074;SDS011;21260;34.984;32.490;2023-01-29T07:07:33;3.83;;;1.40;;
35074;SDS011;21260;34.984;32.490;2023-01-29T07:10:01;6.10;;;1.70;;
35074;SDS011;21260;34.984;32.490;2023-01-29T07:12:30;3.60;;;1.40;;
35074;SDS011;21260;34.984;32.490;2023-01-29T07:14:57;6.90;;;1.57;;
35074;SDS011;21260;34.984;32.490;2023-01-29T07:17:28;9.27;;;1.80;;
35074;SDS011;21260;34.984;32.490;2023-01-29T07:20:01;4.63;;;1.70;;
35074;SDS011;21260;34.984;32.490;2023-01-29T07:22:31;5.43;;;1.60;;
35074;SDS011;21260;34.984;32.490;2023-01-29T07:25:01;2.43;;;1.20;;
35074;SDS011;21260;34.984;32.490;2023-01-29T07:27:33;6.73;;;1.20;;
35074;SDS011;21260;34.984;32.490;2023-01-29T07:30:05;4.57;;;1.47;;
35074;SDS011;21260;34.984;32.490;2023-01-29T07:32:39;4.27;;;1.43;;
35074;SDS011;21260;34.984;32.490;2023-01-29T07:35:16;6.73;;;1.40;;
35074;SDS011;21260;34.984;32.490;2023-01-29T07:37:50;6.40;;;1.43;;
35074;SDS011;21260;34.984;32.490;2023-01-29T07:40:21;5.30;;;1.47;;
35074;SDS011;21260;34.984;32.490;2023-01-29T07:42:49;4.80;;;1.53;;
35074;SDS011;21260;34.984;32.490;2023-01-29T07:45:27;4.70;;;1.33;;
35074;SDS011;21260;34.984;32.490;2023-01-29T07:47:59;6.27;;;1.67;;
35074;SDS011;21260;34.984;32.490;2023-01-29T07:50:30;6.27;;;1.30;;
35074;SDS011;21260;34.984;32.490;2023-01-29T07:53:01;4.90;;;1.50;;
35074;SDS011;21260;34.984;32.490;2023-01-29T07:55:32;4.80;;;1.50;;
35074;SDS011;21260;34.984;32.490;2023-01-29T07:58:02;2.97;;;1.37;;
35074;SDS011;21260;34.984;32.490;2023-01-29T08:00:32;3.63;;;1.63;;
35074;SDS011;21260;34.984;32.490;2023-01-29T08:03:10;5.30;;;1.47;;
35074;SDS011;21260;34.984;32.490;2023-01-29T08:05:43;2.47;;;1.10;;
35074;SDS011;21260;34.984;32.490;2023-01-29T08:08:12;6.20;;;1.50;;
35074;SDS011;21260;34.984;32.490;2023-01-29T08:10:40;4.70;;;1.50;;
35074;SDS011;21260;34.984;32.490;2023-01-29T08:13:09;3.03;;;1.40;;
35074;SDS011;21260;34.984;32.490;2023-01-29T08:15:46;4.90;;;1.30;;
35074;SDS011;21260;34.984;32.490;2023-01-29T08:18:20;2.50;;;1.20;;
35074;SDS011;21260;34.984;32.490;2023-01-29T08:21:02;3.60;;;1.27;;
35074;SDS011;21260;34.984;32.490;2023-01-29T08:23:29;4.97;;;1.30;;
35074;SDS011;21260;34.984;32.490;2023-01-29T08:26:01;4.43;;;1.30;;
35074;SDS011;21260;34.984;32.490;2023-01-29T08:28:32;8.30;;;1.60;;
35074;SDS011;21260;34.984;32.490;2023-01-29T08:31:11;3.70;;;1.30;;
35074;SDS011;21260;34.984;32.490;2023-01-29T08:33:48;4.20;;;1.00;;
35074;SDS011;21260;34.984;32.490;2023-01-29T08:36:15;6.60;;;1.27;;
35074;SDS011;21260;34.984;32.490;2023-01-29T08:38:47;4.70;;;1.50;;
35074;SDS011;21260;34.984;32.490;2023-01-29T08:41:18;6.07;;;1.97;;
35074;SDS011;21260;34.984;32.490;2023-01-29T08:43:50;4.27;;;1.10;;
35074;SDS011;21260;34.984;32.490;2023-01-29T08:46:21;6.00;;;1.50;;
35074;SDS011;21260;34.984;32.490;2023-01-29T08:48:49;2.17;;;1.40;;
35074;SDS011;21260;34.984;32.490;2023-01-29T08:51:20;7.70;;;1.47;;
35074;SDS011;21260;34.984;32.490;2023-01-29T08:53:52;4.33;;;1.57;;
35074;SDS011;21260;34.984;32.490;2023-01-29T08:56:18;8.20;;;1.20;;
35074;SDS011;21260;34.984;32.490;2023-01-29T08:58:58;8.00;;;2.40;;
35074;SDS011;21260;34.984;32.490;2023-01-29T09:01:27;5.30;;;1.60;;
35074;SDS011;21260;34.984;32.490;2023-01-29T09:04:22;6.40;;;1.60;;
35074;SDS011;21260;34.984;32.490;2023-01-29T09:06:50;7.47;;;3.17;;
35074;SDS011;21260;34.984;32.490;2023-01-29T09:09:34;7.67;;;2.30;;
35074;SDS011;21260;34.984;32.490;2023-01-29T09:12:01;5.07;;;1.70;;
35074;SDS011;21260;34.984;32.490;2023-01-29T09:14:38;6.40;;;1.73;;
35074;SDS011;21260;34.984;32.490;2023-01-29T09:17:10;4.03;;;1.90;;
35074;SDS011;21260;34.984;32.490;2023-01-29T09:19:46;4.17;;;1.43;;
35074;SDS011;21260;34.984;32.490;2023-01-29T09:22:18;2.80;;;1.13;;
35074;SDS011;21260;34.984;32.490;2023-01-29T09:24:47;6.40;;;1.50;;
35074;SDS011;21260;34.984;32.490;2023-01-29T09:27:14;6.67;;;1.20;;
35074;SDS011;21260;34.984;32.490;2023-01-29T09:29:41;5.70;;;1.37;;
35074;SDS011;21260;34.984;32.490;2023-01-29T09:32:11;5.53;;;1.40;;
35074;SDS011;21260;34.984;32.490;2023-01-29T09:34:41;3.83;;;1.43;;
35074;SDS011;21260;34.984;32.490;2023-01-29T09:37:08;4.43;;;1.50;;
35074;SDS011;21260;34.984;32.490;2023-01-29T09:39:42;4.73;;;1.77;;
35074;SDS011;21260;34.984;32.490;2023-01-29T09:42:33;4.33;;;1.40;;
35074;SDS011;21260;34.984;32.490;2023-01-29T09:46:05;7.37;;;1.70;;
35074;SDS011;21260;34.984;32.490;2023-01-29T09:48:42;6.47;;;1.80;;
35074;SDS011;21260;34.984;32.490;2023-01-29T09:51:19;3.03;;;1.40;;
35074;SDS011;21260;34.984;32.490;2023-01-29T09:56:54;7.17;;;1.50;;
35074;SDS011;21260;34.984;32.490;2023-01-29T09:59:26;3.60;;;1.30;;
35074;SDS011;21260;34.984;32.490;2023-01-29T10:05:29;5.17;;;1.20;;
35074;SDS011;21260;34.984;32.490;2023-01-29T10:11:13;5.97;;;1.70;;
35074;SDS011;21260;34.984;32.490;2023-01-29T10:16:49;6.00;;;1.60;;
35074;SDS011;21260;34.984;32.490;2023-01-29T10:22:59;2.57;;;1.00;;
35074;SDS011;21260;34.984;32.490;2023-01-29T10:25:56;2.20;;;1.10;;
35074;SDS011;21260;34.984;32.490;2023-01-29T10:31:30;4.57;;;1.40;;
35074;SDS011;21260;34.984;32.490;2023-01-29T10:34:37;3.73;;;1.53;;
35074;SDS011;21260;34.984;32.490;2023-01-29T10:37:18;4.60;;;1.27;;
35074;SDS011;21260;34.984;32.490;2023-01-29T10:43:14;9.23;;;1.30;;
35074;SDS011;21260;34.984;32.490;2023-01-29T11:01:39;8.23;;;1.93;;
35074;SDS011;21260;34.984;32.490;2023-01-29T11:04:14;4.87;;;1.30;;
35074;SDS011;21260;34.984;32.490;2023-01-29T11:06:42;8.43;;;1.43;;
35074;SDS011;21260;34.984;32.490;2023-01-29T11:09:17;3.37;;;1.27;;
35074;SDS011;21260;34.984;32.490;2023-01-29T11:12:15;4.93;;;1.20;;
35074;SDS011;21260;34.984;32.490;2023-01-29T11:14:52;5.17;;;1.30;;
35074;SDS011;21260;34.984;32.490;2023-01-29T11:18:03;3.50;;;1.30;;
35074;SDS011;21260;34.984;32.490;2023-01-29T11:20:44;2.30;;;1.13;;
35074;SDS011;21260;34.984;32.490;2023-01-29T11:23:31;3.73;;;1.27;;
35074;SDS011;21260;34.984;32.490;2023-01-29T11:26:00;4.90;;;1.33;;
35074;SDS011;21260;34.984;32.490;2023-01-29T11:28:48;4.90;;;1.40;;
35074;SDS011;21260;34.984;32.490;2023-01-29T11:31:18;3.73;;;1.33;;
35074;SDS011;21260;34.984;32.490;2023-01-29T11:34:21;5.03;;;1.40;;
35074;SDS011;21260;34.984;32.490;2023-01-29T11:36:58;2.93;;;1.10;;
35074;SDS011;21260;34.984;32.490;2023-01-29T11:39:44;6.90;;;1.50;;
35074;SDS011;21260;34.984;32.490;2023-01-29T11:42:20;2.97;;;1.20;;
35074;SDS011;21260;34.984;32.490;2023-01-29T11:44:53;5.03;;;1.30;;
35074;SDS011;21260;34.984;32.490;2023-01-29T11:47:28;4.40;;;1.33;;
35074;SDS011;21260;34.984;32.490;2023-01-29T11:50:19;1.70;;;1.00;;
35074;SDS011;21260;34.984;32.490;2023-01-29T11:53:02;4.57;;;1.63;;
35074;SDS011;21260;34.984;32.490;2023-01-29T11:55:45;4.90;;;1.60;;
35074;SDS011;21260;34.984;32.490;2023-01-29T11:58:29;3.43;;;1.27;;
35074;SDS011;21260;34.984;32.490;2023-01-29T12:01:05;4.00;;;1.10;;
35074;SDS011;21260;34.984;32.490;2023-01-29T12:03:47;6.80;;;1.90;;
35074;SDS011;21260;34.984;32.490;2023-01-29T12:09:14;4.47;;;1.30;;
35074;SDS011;21260;34.984;32.490;2023-01-29T12:11:52;4.20;;;1.47;;
35074;SDS011;21260;34.984;32.490;2023-01-29T12:14:33;2.87;;;1.30;;
35074;SDS011;21260;34.984;32.490;2023-01-29T12:17:07;5.83;;;1.77;;
35074;SDS011;21260;34.984;32.490;2023-01-29T12:20:03;5.50;;;1.17;;
35074;SDS011;21260;34.984;32.490;2023-01-29T12:31:35;3.07;;;1.03;;
35074;SDS011;21260;34.984;32.490;2023-01-29T12:37:48;3.00;;;1.10;;
35074;SDS011;21260;34.984;32.490;2023-01-29T12:40:36;3.83;;;1.07;;
35074;SDS011;21260;34.984;32.490;2023-01-29T12:43:20;3.97;;;1.30;;
35074;SDS011;21260;34.984;32.490;2023-01-29T12:46:01;3.73;;;1.27;;
35074;SDS011;21260;34.984;32.490;2023-01-29T12:48:45;4.60;;;1.60;;
35074;SDS011;21260;34.984;32.490;2023-01-29T12:51:22;5.07;;;1.50;;
35074;SDS011;21260;34.984;32.490;2023-01-29T12:54:12;3.37;;;1.40;;
35074;SDS011;21260;34.984;32.490;2023-01-29T12:56:58;4.33;;;1.30;;
35074;SDS011;21260;34.984;32.490;2023-01-29T13:05:16;2.70;;;1.20;;
35074;SDS011;21260;34.984;32.490;2023-01-29T13:11:03;3.53;;;1.30;;
35074;SDS011;21260;34.984;32.490;2023-01-29T13:16:26;5.17;;;1.30;;
35074;SDS011;21260;34.984;32.490;2023-01-29T13:19:09;3.67;;;1.10;;
35074;SDS011;21260;34.984;32.490;2023-01-29T13:22:12;5.83;;;1.30;;
35074;SDS011;21260;34.984;32.490;2023-01-29T13:24:58;5.13;;;1.50;;
35074;SDS011;21260;34.984;32.490;2023-01-29T13:27:36;6.13;;;1.90;;
35074;SDS011;21260;34.984;32.490;2023-01-29T13:30:29;5.53;;;1.60;;
35074;SDS011;21260;34.984;32.490;2023-01-29T13:33:18;4.57;;;1.33;;
35074;SDS011;21260;34.984;32.490;2023-01-29T13:35:57;4.00;;;1.47;;
35074;SDS011;21260;34.984;32.490;2023-01-29T13:38:26;4.20;;;1.30;;
35074;SDS011;21260;34.984;32.490;2023-01-29T13:41:05;1.80;;;1.10;;
35074;SDS011;21260;34.984;32.490;2023-01-29T13:43:41;6.50;;;1.20;;
35074;SDS011;21260;34.984;32.490;2023-01-29T13:46:17;7.70;;;1.33;;
35074;SDS011;21260;34.984;32.490;2023-01-29T13:48:49;4.53;;;1.43;;
35074;SDS011;21260;34.984;32.490;2023-01-29T13:51:26;4.57;;;1.30;;
35074;SDS011;21260;34.984;32.490;2023-01-29T13:54:13;13.20;;;1.30;;
35074;SDS011;21260;34.984;32.490;2023-01-29T13:57:00;4.23;;;1.20;;
35074;SDS011;21260;34.984;32.490;2023-01-29T13:59:49;7.03;;;1.23;;
35074;SDS011;21260;34.984;32.490;2023-01-29T14:02:36;7.30;;;1.27;;
35074;SDS011;21260;34.984;32.490;2023-01-29T14:13:55;3.90;;;1.30;;
35074;SDS011;21260;34.984;32.490;2023-01-29T14:16:26;6.07;;;1.60;;
35074;SDS011;21260;34.984;32.490;2023-01-29T14:19:04;5.07;;;1.70;;
35074;SDS011;21260;34.984;32.490;2023-01-29T14:22:02;8.97;;;1.63;;
35074;SDS011;21260;34.984;32.490;2023-01-29T14:24:31;3.83;;;1.40;;
35074;SDS011;21260;34.984;32.490;2023-01-29T14:27:00;5.63;;;1.40;;
35074;SDS011;21260;34.984;32.490;2023-01-29T14:29:30;7.97;;;1.57;;
35074;SDS011;21260;34.984;32.490;2023-01-29T14:32:12;6.10;;;1.10;;
35074;SDS011;21260;34.984;32.490;2023-01-29T14:34:55;3.50;;;1.10;;
35074;SDS011;21260;34.984;32.490;2023-01-29T14:37:41;2.60;;;1.13;;
35074;SDS011;21260;34.984;32.490;2023-01-29T14:40:24;5.97;;;1.27;;
35074;SDS011;21260;34.984;32.490;2023-01-29T14:45:52;3.40;;;1.40;;
35074;SDS011;21260;34.984;32.490;2023-01-29T14:48:47;3.50;;;1.40;;
35074;SDS011;21260;34.984;32.490;2023-01-29T14:51:15;4.53;;;1.20;;
35074;SDS011;21260;34.984;32.490;2023-01-29T14:53:57;5.40;;;1.30;;
35074;SDS011;21260;34.984;32.490;2023-01-29T15:02:36;6.30;;;1.40;;
35074;SDS011;21260;34.984;32.490;2023-01-29T15:05:19;3.10;;;1.07;;
35074;SDS011;21260;34.984;32.490;2023-01-29T15:10:55;3.40;;;1.50;;
35074;SDS011;21260;34.984;32.490;2023-01-29T15:23:31;6.13;;;2.07;;
35074;SDS011;21260;34.984;32.490;2023-01-29T15:26:04;4.17;;;2.23;;
35074;SDS011;21260;34.984;32.490;2023-01-29T15:28:53;6.20;;;2.40;;
35074;SDS011;21260;34.984;32.490;2023-01-29T15:31:24;8.10;;;3.60;;
35074;SDS011;21260;34.984;32.490;2023-01-29T15:34:09;6.70;;;3.70;;
35074;SDS011;21260;34.984;32.490;2023-01-29T15:36:43;5.33;;;3.47;;
35074;SDS011;21260;34.984;32.490;2023-01-29T15:39:15;5.40;;;3.73;;
35074;SDS011;21260;34.984;32.490;2023-01-29T15:42:03;9.73;;;4.17;;
35074;SDS011;21260;34.984;32.490;2023-01-29T15:47:55;8.67;;;4.80;;
35074;SDS011;21260;34.984;32.490;2023-01-29T15:50:30;8.97;;;4.60;;
35074;SDS011;21260;34.984;32.490;2023-01-29T15:53:11;13.30;;;5.33;;
35074;SDS011;21260;34.984;32.490;2023-01-29T15:56:04;8.70;;;5.07;;
35074;SDS011;21260;34.984;32.490;2023-01-29T15:58:42;8.70;;;4.80;;
35074;SDS011;21260;34.984;32.490;2023-01-29T16:01:35;14.70;;;5.27;;
35074;SDS011;21260;34.984;32.490;2023-01-29T16:04:23;7.07;;;4.40;;
35074;SDS011;21260;34.984;32.490;2023-01-29T16:06:56;7.00;;;3.93;;
35074;SDS011;21260;34.984;32.490;2023-01-29T16:09:28;9.23;;;3.60;;
35074;SDS011;21260;34.984;32.490;2023-01-29T16:11:57;5.10;;;3.10;;
35074;SDS011;21260;34.984;32.490;2023-01-29T16:14:27;6.37;;;3.30;;
35074;SDS011;21260;34.984;32.490;2023-01-29T16:17:09;9.83;;;2.97;;
35074;SDS011;21260;34.984;32.490;2023-01-29T16:23:16;4.73;;;2.80;;
35074;SDS011;21260;34.984;32.490;2023-01-29T16:26:06;7.47;;;3.90;;
35074;SDS011;21260;34.984;32.490;2023-01-29T16:28:42;19.03;;;8.43;;
35074;SDS011;21260;34.984;32.490;2023-01-29T16:31:34;27.77;;;12.27;;
35074;SDS011;21260;34.984;32.490;2023-01-29T16:34:18;41.23;;;19.07;;
35074;SDS011;21260;34.984;32.490;2023-01-29T16:37:00;45.30;;;21.10;;
35074;SDS011;21260;34.984;32.490;2023-01-29T16:39:38;45.10;;;19.73;;
35074;SDS011;21260;34.984;32.490;2023-01-29T16:47:33;75.50;;;31.17;;
35074;SDS011;21260;34.984;32.490;2023-01-29T16:50:25;103.83;;;44.47;;
35074;SDS011;21260;34.984;32.490;2023-01-29T16:53:04;134.97;;;59.30;;
35074;SDS011;21260;34.984;32.490;2023-01-29T16:55:51;141.63;;;60.17;;
35074;SDS011;21260;34.984;32.490;2023-01-29T16:58:19;95.80;;;44.20;;
35074;SDS011;21260;34.984;32.490;2023-01-29T17:01:06;101.43;;;46.50;;
35074;SDS011;21260;34.984;32.490;2023-01-29T17:03:46;139.27;;;57.00;;
35074;SDS011;21260;34.984;32.490;2023-01-29T17:06:53;141.70;;;62.60;;
35074;SDS011;21260;34.984;32.490;2023-01-29T17:09:30;136.47;;;60.27;;
35074;SDS011;21260;34.984;32.490;2023-01-29T17:12:04;137.90;;;58.73;;
35074;SDS011;21260;34.984;32.490;2023-01-29T17:14:52;108.30;;;48.90;;
35074;SDS011;21260;34.984;32.490;2023-01-29T17:17:29;97.60;;;44.40;;
35074;SDS011;21260;34.984;32.490;2023-01-29T17:20:05;100.70;;;46.77;;
35074;SDS011;21260;34.984;32.490;2023-01-29T17:22:42;69.93;;;32.60;;
35074;SDS011;21260;34.984;32.490;2023-01-29T17:25:14;53.27;;;25.33;;
35074;SDS011;21260;34.984;32.490;2023-01-29T17:27:45;39.27;;;19.53;;
35074;SDS011;21260;34.984;32.490;2023-01-29T17:30:28;48.00;;;21.27;;
35074;SDS011;21260;34.984;32.490;2023-01-29T17:33:10;55.50;;;22.70;;
35074;SDS011;21260;34.984;32.490;2023-01-29T17:35:51;54.70;;;26.53;;
35074;SDS011;21260;34.984;32.490;2023-01-29T17:38:22;65.10;;;30.07;;
35074;SDS011;21260;34.984;32.490;2023-01-29T17:43:54;81.37;;;38.57;;
35074;SDS011;21260;34.984;32.490;2023-01-29T17:46:25;91.30;;;38.13;;
35074;SDS011;21260;34.984;32.490;2023-01-29T17:49:01;101.00;;;43.40;;
35074;SDS011;21260;34.984;32.490;2023-01-29T17:51:39;76.47;;;35.83;;
35074;SDS011;21260;34.984;32.490;2023-01-29T17:54:11;44.67;;;20.23;;
35074;SDS011;21260;34.984;32.490;2023-01-29T17:56:41;33.47;;;15.80;;
35074;SDS011;21260;34.984;32.490;2023-01-29T17:59:15;32.33;;;14.23;;
35074;SDS011;21260;34.984;32.490;2023-01-29T18:01:55;23.13;;;9.77;;
35074;SDS011;21260;34.984;32.490;2023-01-29T18:04:21;28.07;;;10.53;;
35074;SDS011;21260;34.984;32.490;2023-01-29T18:06:50;21.60;;;8.33;;
35074;SDS011;21260;34.984;32.490;2023-01-29T18:09:21;14.83;;;6.70;;
35074;SDS011;21260;34.984;32.490;2023-01-29T18:11:50;24.53;;;11.37;;
35074;SDS011;21260;34.984;32.490;2023-01-29T18:14:22;43.67;;;20.47;;
35074;SDS011;21260;34.984;32.490;2023-01-29T18:16:49;50.33;;;23.60;;